This is the latest recevied weather packets stored in our database for station/object EA6AMI-5. If no packets are shown the sender has not sent any weather packets the latest 10 day(s).
| Time | Temp. | Humidity | Pressure | Rain* | Wind** | Luminosity | Snow |
|---|---|---|---|---|---|---|---|
| 1777734543 | 21.11° C | 50% | 1020.4 hPa | 0 mm | - | 278 W/m² | - |
| 1777734003 | 21.11° C | 51% | 1020.5 hPa | 0 mm | - | 253 W/m² | - |
| 1777733643 | 21.11° C | 51% | 1020.7 hPa | 0 mm | - | 244 W/m² | - |
| 1777733103 | 21.67° C | 52% | 1020.7 hPa | 0 mm | - | 263 W/m² | - |
| 1777732563 | 21.67° C | 52% | 1020.9 hPa | 0 mm | - | 292 W/m² | - |
| 1777732023 | 22.22° C | 51% | 1020.9 hPa | 0 mm | - | 335 W/m² | - |
| 1777731483 | 22.22° C | 50% | 1020.9 hPa | 0 mm | - | 311 W/m² | - |
| 1777730943 | 22.22° C | 50% | 1021.1 hPa | 0 mm | - | 345 W/m² | - |
| 1777730403 | 22.22° C | 49% | 1021 hPa | 0 mm | - | 364 W/m² | - |
| 1777730043 | 22.78° C | 47% | 1021.1 hPa | 0 mm | - | 372 W/m² | - |
| 1777729503 | 22.22° C | 48% | 1021.2 hPa | 0 mm | - | 494 W/m² | - |
| 1777728964 | 22.78° C | 46% | 1021.2 hPa | 0 mm | - | 506 W/m² | - |
| 1777728423 | 22.78° C | 48% | 1021.5 hPa | 0 mm | - | 513 W/m² | - |
| 1777727883 | 22.78° C | 48% | 1021.3 hPa | 0 mm | - | 489 W/m² | - |
| 1777727343 | 22.22° C | 48% | 1021.5 hPa | 0 mm | - | 527 W/m² | - |
| 1777726803 | 22.78° C | 48% | 1021.5 hPa | 0 mm | - | 501 W/m² | - |
| 1777726443 | 22.22° C | 49% | 1021.7 hPa | 0 mm | - | 597 W/m² | - |
| 1777725903 | 22.78° C | 47% | 1021.5 hPa | 0 mm | - | 522 W/m² | - |
| 1777725363 | 22.22° C | 49% | 1021.6 hPa | 0 mm | - | 714 W/m² | - |
| 1777724823 | 22.78° C | 50% | 1021.6 hPa | 0 mm | - | 729 W/m² | - |
| 1777724283 | 22.78° C | 52% | 1021.4 hPa | 0 mm | - | 465 W/m² | - |
| 1777723743 | 22.22° C | 54% | 1021.6 hPa | 0 mm | - | 732 W/m² | - |
| 1777723203 | 22.78° C | 52% | 1021.5 hPa | 0 mm | - | 414 W/m² | - |
| 1777722843 | 21.67° C | 54% | 1021.6 hPa | 0 mm | - | 657 W/m² | - |
| 1777722303 | 22.22° C | 53% | 1021.7 hPa | 0 mm | - | 836 W/m² | - |
* Rain latest hour (hover to see other rain measurements)
** Current wind speed in m/s (hover to see current wind gust speed)